Página principal
METAR-TAF:

METAR-TAF

Aeroportos :

Dakar, Senegal

Aeroporto Internacional Yoff-Léopold Sédar Senghor

latitude: 14-44N, longitude: 017-30W, altura: 27 m

Observação actual do tempo

O boletim foi feito há 1 hora e 0 minutos, às 11:00 UTC
Vento 4 kt de nor-nordeste
Temperatura 20°C
Humidade 88%
Pressão 1014 hPa
Visibilidade 10 km ou mais
Poucas nuvensa uma altura de 1300 ft
Nuvens fragmentadasa uma altura de 23000 ft

METAR: GOOY 241100Z 02004KT 9999 FEW013 BKN230 20/18 Q1014

Hora: 12:00 (12:00 UTC)

Previsão

O boletim foi feito há 30 minutos, às 11:30 UTC
Previsão válida de 24 às 12 UTC a 25 às 18 UTC
Vento 6 kt de noroeste
Visibilidade 10 km ou mais
Nuvens dispersasa uma altura de 1300 ft

TAF: GOOY 241130Z 2412/2518 32006KT 9999 SCT013

Observações e previsões do tempo de mais de 4000 aeroportos (mensagens METAR e TAF).

As estações disponíveis são os pontos amarelos e vermelhos sobre o mapa.

Mova o rato sobre o mapa para ver o nome da estação.

Depois clique no ponto para visualizar as observações e previsões meteorológicas.

Para alterar o mapa : clique nos botões verdes com uma cruz preta para aumentar o zoom; no botão verde com uma pitada de zoom; ou nas setas verdes para mapas adjacentes.


METAR-TAF: